Time;durP1;ratioP1;P1;durP2;ratioP2;P2;SDS_P1;SDS_P2;PMS_P1;PMS_P2;Temp;Humidity;BMP_temperature;BMP_pressure;BME280_temperature;BME280_humidity;BME280_pressure;Samples;Min_cycle;Max_cycle;Signal;HPM_P1;HPM_P2
2023/09/12 00:01:17;;;;;;;10.03;3.10;;;;;;;16.80;68.44;95359.56;5059901;28;20314;-73
2023/09/12 00:03:42;;;;;;;5.97;3.27;;;;;;;16.81;69.11;95360.38;5060424;28;20225;-74
2023/09/12 00:06:08;;;;;;;5.50;3.07;;;;;;;16.59;69.84;95364.56;5062570;28;20950;-74
2023/09/12 00:08:34;;;;;;;8.13;3.40;;;;;;;16.79;69.40;95363.25;5071488;28;20230;-75
2023/09/12 00:11:03;;;;;;;11.80;3.40;;;;;;;16.54;70.10;95365.25;5057055;28;20240;-74
2023/09/12 00:13:29;;;;;;;6.47;3.07;;;;;;;16.72;69.47;95367.81;5062112;28;20237;-75
2023/09/12 00:15:54;;;;;;;6.80;3.17;;;;;;;16.74;68.78;95360.47;5044917;28;20234;-74
2023/09/12 00:18:20;;;;;;;7.97;3.20;;;;;;;16.57;69.98;95367.44;5039953;28;20728;-74
2023/09/12 00:20:46;;;;;;;5.80;3.13;;;;;;;16.57;70.00;95366.66;5067942;28;20625;-75
2023/09/12 00:23:11;;;;;;;5.23;3.30;;;;;;;16.72;69.46;95361.72;5035795;28;20232;-73
2023/09/12 00:25:36;;;;;;;5.97;3.23;;;;;;;16.82;68.82;95368.09;5068008;28;20894;-74
2023/09/12 00:28:02;;;;;;;8.53;3.50;;;;;;;17.01;68.23;95373.28;5067329;28;20244;-73
2023/09/12 00:30:28;;;;;;;6.93;3.20;;;;;;;16.91;69.59;95376.47;5069868;28;20225;-73
2023/09/12 00:32:53;;;;;;;8.97;3.40;;;;;;;16.93;69.36;95370.97;5068620;28;20224;-74
2023/09/12 00:35:19;;;;;;;8.67;3.67;;;;;;;16.98;69.09;95379.03;5034462;28;20232;-73
2023/09/12 00:37:45;;;;;;;5.30;3.10;;;;;;;16.98;68.68;95381.69;5046039;28;20224;-75
2023/09/12 00:40:11;;;;;;;8.73;3.23;;;;;;;16.94;69.36;95386.59;5063523;28;20232;-74
2023/09/12 00:42:36;;;;;;;7.70;3.30;;;;;;;16.72;70.36;95374.94;5056651;28;20311;-73
2023/09/12 00:45:02;;;;;;;7.03;3.47;;;;;;;16.51;70.10;95376.25;5071091;28;20224;-73
2023/09/12 00:47:27;;;;;;;6.57;3.30;;;;;;;16.28;71.36;95383.25;5071854;28;20749;-73
2023/09/12 00:49:53;;;;;;;5.83;3.37;;;;;;;16.40;71.36;95386.75;5038562;28;20744;-74
2023/09/12 00:52:21;;;;;;;5.43;3.10;;;;;;;16.32;71.46;95379.13;5072423;28;20242;-74
2023/09/12 00:54:46;;;;;;;7.07;3.40;;;;;;;16.31;71.81;95385.47;5055037;28;20222;-74
2023/09/12 00:57:12;;;;;;;6.50;3.27;;;;;;;16.05;72.44;95386.59;5046016;28;20231;-73
2023/09/12 00:59:37;;;;;;;8.37;3.60;;;;;;;16.27;72.35;95389.56;5041979;28;20224;-74
2023/09/12 01:02:03;;;;;;;10.30;3.63;;;;;;;16.17;71.93;95390.91;5069297;28;20223;-74
2023/09/12 01:04:29;;;;;;;6.73;3.97;;;;;;;16.33;72.09;95392.16;5067654;28;20230;-74
2023/09/12 01:06:54;;;;;;;8.17;3.80;;;;;;;16.21;72.79;95391.28;5053164;28;20228;-75
2023/09/12 01:09:20;;;;;;;13.07;4.27;;;;;;;16.19;73.16;95391.47;5053625;28;20228;-74
2023/09/12 01:11:45;;;;;;;5.77;3.60;;;;;;;16.04;73.64;95391.09;5033332;28;20317;-73
2023/09/12 01:14:11;;;;;;;8.23;4.00;;;;;;;16.17;73.44;95395.38;5041758;28;20237;-73
2023/09/12 01:16:36;;;;;;;14.07;4.20;;;;;;;16.25;73.33;95389.00;5031225;28;20216;-73
2023/09/12 01:19:02;;;;;;;7.87;4.20;;;;;;;16.07;73.81;95385.34;5057876;28;20616;-73
2023/09/12 01:21:38;;;;;;;7.67;4.30;;;;;;;16.09;73.69;95385.94;5052266;28;20640;-73
2023/09/12 01:24:28;;;;;;;8.40;4.40;;;;;;;16.14;74.24;95388.69;5067017;28;20224;-73
2023/09/12 01:27:19;;;;;;;11.87;5.00;;;;;;;16.04;74.76;95396.38;5069180;28;21302;-73
2023/09/12 01:29:44;;;;;;;12.80;4.80;;;;;;;16.21;73.54;95398.38;5071574;28;20729;-73
2023/09/12 01:32:10;;;;;;;9.00;5.27;;;;;;;16.17;73.97;95398.00;5045728;28;20232;-73
2023/09/12 01:34:36;;;;;;;11.00;5.67;;;;;;;16.05;73.96;95400.59;5065248;28;20254;-74
2023/09/12 01:37:01;;;;;;;12.17;6.00;;;;;;;16.11;73.52;95394.44;5068281;28;20228;-74
2023/09/12 01:39:26;;;;;;;14.27;5.97;;;;;;;15.84;75.25;95397.59;5039397;28;20632;-74
2023/09/12 01:41:52;;;;;;;12.07;6.13;;;;;;;16.09;74.07;95393.88;5053048;28;20221;-74
2023/09/12 01:44:17;;;;;;;12.23;6.10;;;;;;;16.26;73.30;95396.72;5049206;28;20222;-73
2023/09/12 01:46:43;;;;;;;10.60;6.03;;;;;;;16.22;73.25;95397.34;5049504;28;20228;-74
2023/09/12 01:49:09;;;;;;;10.27;5.67;;;;;;;16.24;73.07;95396.09;5047269;28;20237;-73
2023/09/12 01:51:34;;;;;;;10.67;5.57;;;;;;;16.34;72.31;95404.31;5070774;28;20237;-73
2023/09/12 01:54:00;;;;;;;8.80;4.93;;;;;;;16.01;72.99;95404.72;5071546;28;20232;-73
2023/09/12 01:56:25;;;;;;;10.30;5.23;;;;;;;15.93;73.25;95405.00;5050640;28;20225;-74
2023/09/12 01:58:51;;;;;;;10.50;5.23;;;;;;;15.86;73.92;95401.63;5052892;28;20224;-73
2023/09/12 02:01:16;;;;;;;11.67;5.03;;;;;;;15.73;74.21;95408.91;5064215;28;20307;-73
2023/09/12 02:03:42;;;;;;;11.70;5.23;;;;;;;15.38;75.41;95408.59;5070640;28;20674;-73
2023/09/12 02:06:07;;;;;;;9.13;4.77;;;;;;;15.41;75.23;95411.59;5073219;28;20774;-74
2023/09/12 02:08:32;;;;;;;11.10;4.90;;;;;;;15.50;74.84;95407.69;5036112;28;20227;-74
2023/09/12 02:10:58;;;;;;;10.93;4.70;;;;;;;15.41;75.93;95408.97;5054015;28;21309;-73
2023/09/12 02:13:23;;;;;;;10.83;4.80;;;;;;;15.52;75.07;95404.84;5063629;28;20303;-74
2023/09/12 02:15:49;;;;;;;16.63;4.70;;;;;;;15.37;75.32;95417.53;5053361;28;20221;-73
2023/09/12 02:18:15;;;;;;;9.73;4.60;;;;;;;15.31;75.50;95413.09;5056888;28;20260;-74
2023/09/12 02:20:41;;;;;;;13.10;4.73;;;;;;;15.39;75.27;95410.19;5069916;28;20744;-74
2023/09/12 02:23:06;;;;;;;8.53;4.60;;;;;;;15.47;74.89;95404.69;5046040;28;20259;-73
2023/09/12 02:25:32;;;;;;;9.00;4.50;;;;;;;15.43;75.29;95414.00;5050108;28;20289;-74
2023/09/12 02:27:58;;;;;;;8.10;4.60;;;;;;;15.30;76.09;95406.22;5057495;28;20551;-74
2023/09/12 02:30:23;;;;;;;12.50;4.83;;;;;;;15.15;76.82;95411.84;5046370;28;20248;-72
2023/09/12 02:32:48;;;;;;;7.73;4.63;;;;;;;15.11;77.32;95418.56;5068408;28;20233;-74
2023/09/12 02:35:14;;;;;;;10.17;4.80;;;;;;;15.09;77.53;95411.91;5070151;28;20231;-74
2023/09/12 02:37:39;;;;;;;12.97;5.13;;;;;;;15.10;77.02;95411.66;5050936;28;20222;-75
2023/09/12 02:40:06;;;;;;;12.60;5.40;;;;;;;15.12;77.20;95411.44;5050768;28;20239;-74
2023/09/12 02:42:32;;;;;;;12.57;6.10;;;;;;;15.10;77.24;95406.41;5045485;28;20228;-75
2023/09/12 02:44:57;;;;;;;19.13;6.30;;;;;;;15.09;77.42;95411.91;5063942;28;20228;-74
2023/09/12 02:47:23;;;;;;;13.43;5.93;;;;;;;15.13;77.73;95416.53;5064044;28;20289;-75
2023/09/12 02:49:48;;;;;;;13.27;5.57;;;;;;;15.63;75.51;95409.41;5051358;28;20263;-74
2023/09/12 02:52:14;;;;;;;9.90;5.10;;;;;;;15.65;75.47;95404.72;5049482;28;20279;-74
2023/09/12 02:54:39;;;;;;;14.00;5.80;;;;;;;15.36;76.92;95410.63;5066763;28;20228;-74
2023/09/12 02:57:05;;;;;;;14.90;5.27;;;;;;;15.57;76.21;95412.91;5048344;28;20228;-74
2023/09/12 02:59:30;;;;;;;11.73;5.23;;;;;;;15.37;77.06;95407.78;5065877;28;20223;-73
2023/09/12 03:01:56;;;;;;;12.90;5.40;;;;;;;15.32;77.14;95404.19;5044624;28;20232;-71
2023/09/12 03:04:22;;;;;;;10.53;5.50;;;;;;;14.98;79.22;95417.84;5049328;28;20757;-73
2023/09/12 03:06:48;;;;;;;10.70;5.00;;;;;;;15.04;78.58;95419.63;5048220;28;20240;-73
2023/09/12 03:09:14;;;;;;;13.63;5.50;;;;;;;14.89;79.69;95421.75;5045792;28;20220;-73
2023/09/12 03:11:39;;;;;;;12.27;5.03;;;;;;;15.15;78.88;95413.66;5062437;28;20229;-73
2023/09/12 03:14:05;;;;;;;11.50;5.20;;;;;;;15.00;79.52;95408.69;5056244;28;20228;-73
2023/09/12 03:16:30;;;;;;;15.73;5.50;;;;;;;14.92;79.56;95413.44;5065917;28;20224;-73
2023/09/12 03:18:56;;;;;;;13.40;4.97;;;;;;;14.56;81.32;95414.06;5063178;28;20259;-74
2023/09/12 03:21:21;;;;;;;12.17;5.20;;;;;;;14.66;81.20;95409.16;5052462;28;20287;-73
2023/09/12 03:23:47;;;;;;;11.50;5.00;;;;;;;14.53;81.31;95414.50;5060825;28;20254;-73
2023/09/12 03:26:12;;;;;;;12.17;5.27;;;;;;;14.53;81.77;95425.03;5060412;28;20242;-74
2023/09/12 03:28:38;;;;;;;10.83;5.23;;;;;;;14.55;81.85;95431.72;5036729;28;20229;-72
2023/09/12 03:31:17;;;;;;;15.13;4.93;;;;;;;14.33;82.92;95424.34;5064167;28;20232;-77
2023/09/12 03:33:43;;;;;;;23.10;5.53;;;;;;;14.40;83.04;95433.00;5064787;28;20232;-78
2023/09/12 03:36:08;;;;;;;15.77;5.60;;;;;;;14.28;83.07;95421.50;5066530;28;20618;-77
2023/09/12 03:38:34;;;;;;;13.50;5.10;;;;;;;14.59;81.91;95419.72;5050970;28;20250;-77
2023/09/12 03:41:00;;;;;;;12.90;5.50;;;;;;;14.69;81.42;95420.06;5053625;28;20221;-78
2023/09/12 03:43:25;;;;;;;11.77;6.37;;;;;;;14.66;80.83;95431.03;5050398;28;20225;-78
2023/09/12 03:45:51;;;;;;;15.33;6.20;;;;;;;14.48;81.70;95430.13;5052534;28;20236;-73
2023/09/12 03:48:16;;;;;;;14.67;6.37;;;;;;;14.65;80.80;95426.78;5040210;28;20237;-73
2023/09/12 03:50:42;;;;;;;19.53;6.20;;;;;;;14.73;80.52;95431.81;5070184;28;20788;-73
2023/09/12 03:53:08;;;;;;;14.23;6.03;;;;;;;14.81;80.26;95434.19;5066716;28;20638;-75
2023/09/12 03:55:33;;;;;;;16.60;5.97;;;;;;;14.73;80.57;95423.91;5074985;28;20232;-74
2023/09/12 03:57:58;;;;;;;12.53;5.77;;;;;;;14.57;81.27;95437.56;5065949;28;20755;-73
2023/09/12 04:00:24;;;;;;;14.53;5.73;;;;;;;14.75;80.48;95435.03;5061122;28;20244;-73
2023/09/12 04:02:52;;;;;;;12.20;6.10;;;;;;;14.83;80.25;95439.25;5054668;28;20231;-74
2023/09/12 04:05:17;;;;;;;11.93;5.80;;;;;;;14.75;80.93;95429.78;5064556;28;20231;-73
2023/09/12 04:07:43;;;;;;;13.40;5.70;;;;;;;14.61;80.69;95432.69;5058208;28;20240;-73
2023/09/12 04:10:09;;;;;;;15.77;5.70;;;;;;;14.44;81.53;95434.19;5052671;28;20237;-78
2023/09/12 04:12:34;;;;;;;10.50;5.87;;;;;;;14.42;81.87;95433.59;5047186;28;20237;-78
2023/09/12 04:15:00;;;;;;;11.10;5.87;;;;;;;14.53;81.47;95428.47;5067920;28;20748;-77
2023/09/12 04:17:25;;;;;;;10.73;5.93;;;;;;;14.65;81.28;95429.41;5046723;28;20681;-78
2023/09/12 04:19:51;;;;;;;12.57;6.00;;;;;;;14.58;81.05;95430.47;5054745;28;20479;-77
2023/09/12 04:22:16;;;;;;;12.37;5.80;;;;;;;14.46;81.40;95434.78;5031074;28;20738;-78
2023/09/12 04:24:42;;;;;;;14.43;5.47;;;;;;;14.49;81.36;95434.38;5067905;28;20235;-77
2023/09/12 04:27:07;;;;;;;16.30;6.47;;;;;;;14.56;81.54;95438.59;5055038;28;20248;-76
2023/09/12 04:29:36;;;;;;;18.20;6.27;;;;;;;14.49;81.95;95437.00;5046892;28;20298;-78
2023/09/12 04:32:05;;;;;;;16.03;6.33;;;;;;;14.54;81.72;95426.66;5078983;28;20236;-77
2023/09/12 04:34:30;;;;;;;14.63;5.83;;;;;;;14.75;81.07;95440.31;5041835;28;20344;-74
2023/09/12 04:36:56;;;;;;;15.13;6.03;;;;;;;14.44;82.07;95448.19;5056172;28;20311;-73
2023/09/12 04:39:21;;;;;;;14.43;6.10;;;;;;;14.50;81.33;95439.44;5039844;28;20232;-73
2023/09/12 04:41:47;;;;;;;13.07;5.97;;;;;;;14.66;81.17;95441.56;5066861;28;20717;-73
2023/09/12 04:44:12;;;;;;;15.80;5.80;;;;;;;14.91;79.32;95438.16;5058982;28;20228;-74
2023/09/12 04:46:38;;;;;;;13.30;5.67;;;;;;;14.99;78.67;95441.38;5056796;28;20222;-73
2023/09/12 04:49:03;;;;;;;15.77;5.40;;;;;;;15.14;77.25;95446.34;5057504;28;20243;-73
2023/09/12 04:51:29;;;;;;;14.03;5.30;;;;;;;15.18;76.70;95450.16;5048175;28;20224;-73
2023/09/12 04:53:54;;;;;;;13.20;5.53;;;;;;;15.02;76.69;95440.13;5064181;28;20229;-74
2023/09/12 04:56:20;;;;;;;14.67;5.90;;;;;;;15.13;77.28;95445.53;5055684;28;20251;-73
2023/09/12 04:58:45;;;;;;;17.40;5.97;;;;;;;15.06;77.37;95444.78;5064625;28;20782;-72
2023/09/12 05:01:11;;;;;;;14.83;5.83;;;;;;;15.23;76.51;95442.41;5050770;28;20254;-73
2023/09/12 05:03:37;;;;;;;12.37;5.80;;;;;;;15.47;75.50;95449.53;5054594;28;20243;-73
2023/09/12 05:06:03;;;;;;;12.83;5.93;;;;;;;15.33;75.36;95451.44;5051250;28;20236;-73
2023/09/12 05:08:29;;;;;;;10.77;5.00;;;;;;;15.43;74.56;95456.22;5040694;28;20251;-73
2023/09/12 05:10:55;;;;;;;14.93;5.27;;;;;;;15.45;74.63;95449.75;5060501;28;20240;-73
2023/09/12 05:13:20;;;;;;;11.70;5.27;;;;;;;15.40;74.64;95448.75;5074799;28;20224;-73
2023/09/12 05:15:46;;;;;;;12.60;5.23;;;;;;;15.39;74.76;95452.41;5050652;28;20228;-73
2023/09/12 05:18:12;;;;;;;15.83;5.10;;;;;;;15.45;74.18;95451.59;5064575;28;20314;-74
2023/09/12 05:20:37;;;;;;;12.23;5.20;;;;;;;15.56;73.12;95448.25;5030190;28;20235;-73
2023/09/12 05:23:03;;;;;;;18.87;5.23;;;;;;;15.65;73.84;95454.84;5065122;28;20237;-73
2023/09/12 05:25:28;;;;;;;11.90;5.23;;;;;;;15.74;72.55;95458.03;5067436;28;20646;-73
2023/09/12 05:27:54;;;;;;;13.80;5.90;;;;;;;15.75;72.63;95462.25;5058977;28;20228;-73
2023/09/12 05:30:19;;;;;;;19.90;6.40;;;;;;;15.83;72.02;95459.34;5053232;28;20239;-73
2023/09/12 05:32:45;;;;;;;19.80;6.97;;;;;;;15.87;72.09;95458.69;5067038;28;20262;-73
2023/09/12 05:35:10;;;;;;;16.77;5.53;;;;;;;15.99;71.43;95456.94;5064536;28;20705;-73
2023/09/12 05:37:36;;;;;;;11.80;5.60;;;;;;;15.94;71.03;95455.97;5053564;28;20255;-73
2023/09/12 05:40:01;;;;;;;16.10;5.90;;;;;;;15.99;71.65;95459.59;5071545;28;20225;-73
2023/09/12 05:42:27;;;;;;;19.57;5.90;;;;;;;16.06;70.29;95456.88;5063131;28;20237;-73
2023/09/12 05:44:56;;;;;;;17.87;5.77;;;;;;;16.12;70.24;95463.94;5073503;28;20228;-73
2023/09/12 05:47:21;;;;;;;14.23;5.90;;;;;;;16.14;70.54;95462.66;5051586;28;20230;-73
2023/09/12 05:49:47;;;;;;;14.07;5.77;;;;;;;16.18;69.82;95460.38;5047869;28;20226;-73
2023/09/12 05:52:12;;;;;;;15.47;6.07;;;;;;;16.21;71.04;95461.78;5050577;28;20242;-73
2023/09/12 05:54:39;;;;;;;13.63;5.60;;;;;;;16.03;70.91;95465.22;5064492;28;20233;-74
2023/09/12 05:57:04;;;;;;;12.53;5.53;;;;;;;16.03;72.00;95455.47;5068646;28;20264;-73
2023/09/12 05:59:30;;;;;;;18.43;5.73;;;;;;;16.22;71.63;95466.03;5051681;28;20216;-72
2023/09/12 06:01:55;;;;;;;15.47;5.80;;;;;;;16.27;71.21;95456.41;5044954;28;20256;-74
2023/09/12 06:04:21;;;;;;;12.57;5.80;;;;;;;16.47;69.59;95458.81;5059458;28;20237;-73
2023/09/12 06:06:47;;;;;;;14.20;6.00;;;;;;;16.59;68.93;95459.72;5045952;28;20308;-73
2023/09/12 06:09:12;;;;;;;14.03;5.67;;;;;;;16.70;68.99;95464.25;5045858;28;20236;-73
2023/09/12 06:11:37;;;;;;;22.37;5.80;;;;;;;16.85;68.45;95456.72;5050126;28;20279;-74
2023/09/12 06:14:03;;;;;;;13.60;5.70;;;;;;;16.73;68.87;95455.88;5070372;28;20248;-73
2023/09/12 06:16:29;;;;;;;17.70;5.90;;;;;;;16.77;69.68;95460.47;5053662;28;20216;-73
2023/09/12 06:18:55;;;;;;;14.90;6.10;;;;;;;16.94;68.22;95467.78;5023883;28;20236;-73
2023/09/12 06:21:21;;;;;;;16.40;6.70;;;;;;;17.00;67.19;95467.69;5052610;28;20217;-73
2023/09/12 06:24:15;;;;;;;15.33;5.80;;;;;;;17.06;68.17;95469.44;5053266;28;20258;-73
2023/09/12 06:26:41;;;;;;;14.67;6.00;;;;;;;17.15;67.34;95472.53;5053469;28;20221;-74
2023/09/12 06:29:06;;;;;;;21.87;6.40;;;;;;;17.12;67.89;95465.91;5067240;28;20248;-73
2023/09/12 06:31:32;;;;;;;14.67;6.40;;;;;;;17.22;67.99;95475.94;5044227;28;20541;-73
2023/09/12 06:33:57;;;;;;;14.87;6.20;;;;;;;17.36;66.98;95478.13;5052154;28;20242;-74
2023/09/12 06:36:26;;;;;;;16.90;6.50;;;;;;;17.44;66.95;95476.97;5047655;28;20700;-74
2023/09/12 06:38:52;;;;;;;15.40;6.00;;;;;;;17.50;66.33;95473.44;5067455;28;20228;-73
2023/09/12 06:41:20;;;;;;;17.30;6.47;;;;;;;17.60;65.70;95481.63;5064945;28;20233;-73
2023/09/12 06:43:46;;;;;;;14.00;6.10;;;;;;;17.66;66.70;95482.56;5033245;28;20285;-73
2023/09/12 06:46:12;;;;;;;13.83;6.03;;;;;;;17.70;65.69;95486.34;5066834;28;20225;-73
2023/09/12 06:48:37;;;;;;;14.47;6.40;;;;;;;17.76;64.93;95482.81;5047398;28;20232;-73
2023/09/12 06:51:08;;;;;;;15.07;6.20;;;;;;;17.84;64.07;95490.41;5069093;28;20239;-73
2023/09/12 06:53:33;;;;;;;14.67;6.03;;;;;;;17.84;63.28;95479.81;5031990;28;20229;-73
2023/09/12 06:55:59;;;;;;;13.00;6.33;;;;;;;17.96;63.67;95483.28;5041221;28;20239;-73
2023/09/12 06:58:25;;;;;;;18.37;6.93;;;;;;;18.14;62.72;95485.78;5076608;28;20344;-73
2023/09/12 07:00:50;;;;;;;16.27;6.60;;;;;;;18.08;62.51;95492.00;5050308;28;20306;-74
2023/09/12 07:03:16;;;;;;;17.50;6.10;;;;;;;18.18;62.73;95492.22;5037128;28;20243;-73
2023/09/12 07:05:42;;;;;;;15.43;6.57;;;;;;;18.23;62.37;95488.88;5066332;28;20256;-73
2023/09/12 07:08:08;;;;;;;14.40;6.50;;;;;;;18.32;61.94;95488.28;5053546;28;20231;-73
2023/09/12 07:10:34;;;;;;;20.67;6.80;;;;;;;18.36;62.51;95488.63;5052552;28;20362;-73
2023/09/12 07:12:59;;;;;;;15.63;6.73;;;;;;;18.41;63.46;95484.25;5052804;28;20236;-73
2023/09/12 07:15:25;;;;;;;17.27;6.60;;;;;;;18.41;62.38;95486.09;5052489;28;20224;-73
2023/09/12 07:17:50;;;;;;;19.60;6.03;;;;;;;18.52;61.71;95486.09;5056771;28;20236;-73
2023/09/12 07:20:17;;;;;;;18.17;6.50;;;;;;;18.54;60.31;95491.97;5056079;28;20233;-74
2023/09/12 07:22:43;;;;;;;16.20;6.33;;;;;;;18.59;60.47;95484.13;5062851;28;20236;-73
2023/09/12 07:25:11;;;;;;;17.87;5.60;;;;;;;18.45;60.15;95489.88;5070920;28;20248;-74
2023/09/12 07:27:37;;;;;;;15.00;5.70;;;;;;;18.69;58.43;95492.28;5052290;28;20237;-73
2023/09/12 07:30:04;;;;;;;12.23;5.17;;;;;;;18.83;58.57;95495.44;5052062;28;20255;-73
2023/09/12 07:32:30;;;;;;;10.43;5.67;;;;;;;18.90;58.85;95490.81;5044658;28;20241;-73
2023/09/12 07:34:55;;;;;;;15.00;5.90;;;;;;;19.00;58.59;95490.19;5067428;28;20236;-73
2023/09/12 07:37:20;;;;;;;12.40;5.57;;;;;;;18.99;58.73;95494.69;5039683;28;20239;-73
2023/09/12 07:39:46;;;;;;;9.77;5.37;;;;;;;19.01;58.31;95489.94;5027787;28;20221;-72
2023/09/12 07:42:11;;;;;;;11.83;5.27;;;;;;;19.14;57.32;95492.31;5054362;28;20224;-73
2023/09/12 07:44:37;;;;;;;11.73;5.33;;;;;;;19.30;55.66;95486.22;5054641;28;20248;-73
2023/09/12 07:47:03;;;;;;;14.13;5.13;;;;;;;19.44;56.54;95495.53;5068742;28;20232;-73
2023/09/12 07:49:29;;;;;;;11.57;4.90;;;;;;;19.46;56.90;95474.84;5064991;28;20229;-73
2023/09/12 07:51:56;;;;;;;11.73;5.07;;;;;;;19.60;55.21;95480.66;5052336;28;20288;-73
2023/09/12 07:54:22;;;;;;;10.47;4.80;;;;;;;19.62;55.25;95481.22;5042726;28;20299;-73
2023/09/12 07:56:47;;;;;;;14.43;5.07;;;;;;;19.68;55.00;95477.59;5070429;28;20243;-73
2023/09/12 07:59:14;;;;;;;11.90;4.53;;;;;;;19.67;54.68;95478.66;5060474;28;20233;-73
2023/09/12 08:01:39;;;;;;;9.30;4.10;;;;;;;19.78;53.53;95476.94;5046622;28;20228;-73
2023/09/12 08:04:05;;;;;;;11.37;4.23;;;;;;;19.96;52.50;95482.81;5034574;28;20300;-73
2023/09/12 08:06:31;;;;;;;11.30;4.00;;;;;;;20.02;51.14;95481.00;5057399;28;20235;-72
2023/09/12 08:08:56;;;;;;;7.33;3.83;;;;;;;20.08;50.69;95486.16;5071866;28;20228;-72
2023/09/12 08:11:21;;;;;;;9.60;3.90;;;;;;;20.17;50.54;95486.56;5065981;28;20225;-72
2023/09/12 08:13:49;;;;;;;9.30;3.50;;;;;;;20.14;50.87;95485.19;5068437;28;20235;-73
2023/09/12 08:16:14;;;;;;;12.10;3.70;;;;;;;20.13;51.08;95480.13;5057198;28;20229;-72
2023/09/12 08:18:40;;;;;;;9.40;3.67;;;;;;;20.39;51.37;95479.44;5067266;28;20593;-73
2023/09/12 08:21:05;;;;;;;9.10;3.37;;;;;;;20.39;50.74;95484.78;5046500;28;20236;-72
2023/09/12 08:23:31;;;;;;;10.50;3.33;;;;;;;20.40;50.17;95483.69;5047830;28;20608;-72
2023/09/12 08:25:56;;;;;;;7.73;3.47;;;;;;;20.60;49.60;95483.16;5066753;28;20235;-73
2023/09/12 08:28:22;;;;;;;10.67;3.43;;;;;;;20.61;49.85;95482.91;5067426;28;20245;-73
2023/09/12 08:30:47;;;;;;;8.73;3.10;;;;;;;20.70;48.12;95477.97;5031606;28;20225;-73
2023/09/12 08:33:12;;;;;;;9.33;3.30;;;;;;;20.80;47.73;95478.09;5058824;28;20229;-73
2023/09/12 08:35:38;;;;;;;10.83;3.20;;;;;;;20.85;48.62;95472.78;5056042;28;20322;-73
2023/09/12 08:38:03;;;;;;;9.00;3.30;;;;;;;20.85;49.17;95474.69;5066470;28;20265;-73
2023/09/12 08:40:30;;;;;;;8.87;3.33;;;;;;;20.84;48.91;95468.53;5056943;28;20229;-73
2023/09/12 08:42:55;;;;;;;10.73;3.20;;;;;;;21.01;48.07;95473.78;5052841;28;20253;-72
2023/09/12 08:45:21;;;;;;;8.17;3.10;;;;;;;21.16;48.65;95458.00;5039023;28;20248;-73
2023/09/12 08:47:50;;;;;;;11.27;3.23;;;;;;;21.38;47.14;95466.69;5063112;28;20224;-72
2023/09/12 08:50:18;;;;;;;8.27;3.30;;;;;;;21.46;46.85;95464.41;5046125;28;20233;-72
2023/09/12 08:52:45;;;;;;;7.57;3.30;;;;;;;21.52;47.08;95461.78;5067360;28;20224;-73
2023/09/12 08:55:10;;;;;;;6.63;3.20;;;;;;;21.38;47.54;95462.19;5051986;28;20232;-73
2023/09/12 08:57:38;;;;;;;8.03;3.40;;;;;;;21.46;47.27;95459.06;5062971;28;20232;-73
2023/09/12 09:00:14;;;;;;;9.13;3.40;;;;;;;21.54;46.79;95459.66;5039129;28;20232;-72
2023/09/12 09:02:42;;;;;;;7.53;3.00;;;;;;;21.62;45.84;95462.66;5056572;28;20221;-73
2023/09/12 09:05:11;;;;;;;7.43;3.10;;;;;;;21.78;45.22;95463.56;5048927;28;20225;-73
2023/09/12 09:07:37;;;;;;;8.87;3.07;;;;;;;21.88;45.80;95471.66;5057071;28;20228;-73
2023/09/12 09:10:05;;;;;;;7.97;3.30;;;;;;;22.04;44.59;95458.16;5037663;28;20337;-72
2023/09/12 09:12:30;;;;;;;11.43;3.40;;;;;;;22.16;44.74;95462.53;5030340;28;20262;-72
2023/09/12 09:14:56;;;;;;;10.70;3.23;;;;;;;22.22;45.29;95456.13;5072141;28;20235;-73
2023/09/12 09:17:21;;;;;;;8.83;3.37;;;;;;;22.36;44.61;95452.75;5054650;28;20228;-73
2023/09/12 09:19:47;;;;;;;7.83;3.13;;;;;;;22.51;44.81;95458.16;5054775;28;20275;-74
2023/09/12 09:22:13;;;;;;;11.33;3.30;;;;;;;;;;5035865;28;20224;-73
2023/09/12 09:24:38;;;;;;;6.47;3.03;;;;;;;22.59;43.86;95449.63;5071662;28;20228;-73
2023/09/12 09:27:04;;;;;;;10.27;3.37;;;;;;;22.79;43.08;95447.09;5041126;28;20252;-73
2023/09/12 09:29:31;;;;;;;11.53;3.20;;;;;;;22.89;41.38;95453.50;5044390;28;20228;-73
2023/09/12 09:31:58;;;;;;;7.23;2.97;;;;;;;22.94;42.41;95446.31;5053575;28;20343;-74
2023/09/12 09:34:24;;;;;;;9.33;3.30;;;;;;;23.17;41.92;95439.69;5069252;28;20225;-74
2023/09/12 09:36:53;;;;;;;7.32;3.00;;;;;;;23.33;41.39;95436.75;5048589;28;20262;-73
2023/09/12 09:39:20;;;;;;;6.13;3.05;;;;;;;23.34;41.50;95432.22;5053215;28;20235;-73
2023/09/12 09:41:53;;;;;;;8.50;3.35;;;;;;;23.40;41.87;95436.53;5038990;28;20753;-72
2023/09/12 09:44:20;;;;;;;8.43;3.05;;;;;;;23.40;42.47;95436.53;5049355;28;20232;-73
2023/09/12 09:46:46;;;;;;;5.20;3.03;;;;;;;23.50;41.61;95431.19;5050885;28;20281;-73
2023/09/12 09:49:14;;;;;;;6.00;2.72;;;;;;;23.61;40.78;95427.47;5056416;28;20229;-74
2023/09/12 09:51:43;;;;;;;9.20;3.03;;;;;;;23.56;41.34;95419.44;5049592;28;20225;-72
2023/09/12 09:54:08;;;;;;;9.52;3.10;;;;;;;23.67;40.40;95431.72;5044845;28;20240;-73
2023/09/12 09:56:50;;;;;;;15.18;3.33;;;;;;;23.76;39.22;95424.78;5070303;28;20251;-75
2023/09/12 09:59:20;;;;;;;7.50;3.10;;;;;;;23.84;41.34;95418.06;5052724;28;20228;-73
2023/09/12 10:01:46;;;;;;;8.77;3.40;;;;;;;23.95;40.78;95417.78;5068182;28;20233;-73
2023/09/12 10:04:11;;;;;;;7.30;3.20;;;;;;;24.01;40.28;95411.34;5031917;28;20228;-73
2023/09/12 10:06:37;;;;;;;8.10;3.20;;;;;;;24.15;39.48;95413.47;5043154;28;20220;-74
2023/09/12 10:09:09;;;;;;;8.60;3.10;;;;;;;24.28;38.69;95412.91;5048653;28;20252;-74
2023/09/12 10:11:53;;;;;;;7.88;2.92;;;;;;;24.46;37.60;95418.47;5060748;28;20216;-73
2023/09/12 10:14:19;;;;;;;7.25;3.35;;;;;;;24.49;37.43;95411.75;5061595;28;20236;-74
2023/09/12 10:16:46;;;;;;;7.10;3.38;;;;;;;24.49;36.97;95401.06;5042077;28;20224;-73
2023/09/12 10:19:22;;;;;;;6.88;2.95;;;;;;;24.57;36.78;95403.16;5059957;28;20271;-74
2023/09/12 10:22:08;;;;;;;7.55;3.17;;;;;;;24.65;36.97;95398.03;5043706;28;20221;-73
2023/09/12 10:24:34;;;;;;;4.70;3.00;;;;;;;24.72;38.25;95390.50;5069111;28;20227;-74
2023/09/12 10:27:00;;;;;;;9.23;3.20;;;;;;;24.72;38.12;95392.38;5045693;28;20236;-72
2023/09/12 10:29:25;;;;;;;6.13;3.10;;;;;;;24.88;38.24;95391.25;5047897;28;20736;-73
2023/09/12 10:31:51;;;;;;;9.07;4.55;;;;;;;25.11;37.37;95390.56;5062924;28;20225;-73
2023/09/12 10:34:16;;;;;;;8.27;3.28;;;;;;;25.19;35.75;95387.31;5064334;28;20255;-72
2023/09/12 10:36:43;;;;;;;9.05;4.00;;;;;;;25.39;37.14;95386.31;5051973;28;20264;-73
2023/09/12 10:39:09;;;;;;;10.15;4.95;;;;;;;25.48;36.40;95389.25;5048322;28;20248;-73
2023/09/12 10:41:38;;;;;;;6.50;3.60;;;;;;;25.65;35.33;95387.72;5048500;28;20224;-73
2023/09/12 10:44:09;;;;;;;7.32;3.22;;;;;;;25.50;35.16;95385.19;5031741;28;20239;-73
2023/09/12 10:46:42;;;;;;;7.18;3.15;;;;;;;25.61;34.93;95381.34;5051073;28;20289;-73
2023/09/12 10:49:08;;;;;;;9.35;3.30;;;;;;;25.58;34.99;95368.50;5049817;28;20237;-73
2023/09/12 10:51:38;;;;;;;8.80;3.30;;;;;;;25.71;34.12;95377.75;5036331;28;20278;-73
2023/09/12 10:54:03;;;;;;;9.30;3.28;;;;;;;25.82;35.69;95368.53;5046696;28;20297;-73
2023/09/12 10:56:32;;;;;;;7.25;3.42;;;;;;;25.97;34.05;95363.00;5042222;28;20232;-74
2023/09/12 10:59:06;;;;;;;6.47;3.75;;;;;;;26.01;33.98;95369.41;5061136;28;20248;-74
2023/09/12 11:01:36;;;;;;;7.00;3.50;;;;;;;26.13;35.72;95363.69;5064051;28;20227;-73
2023/09/12 11:04:20;;;;;;;6.95;3.22;;;;;;;26.25;35.56;95361.41;5040524;28;20260;-73
2023/09/12 11:06:48;;;;;;;8.57;3.17;;;;;;;26.45;34.42;95358.44;5058943;28;20279;-74
2023/09/12 11:09:14;;;;;;;7.72;3.20;;;;;;;26.50;34.50;95356.50;5045197;28;20229;-74
2023/09/12 11:11:43;;;;;;;6.38;3.20;;;;;;;26.50;35.22;95351.16;5069421;28;20234;-73
2023/09/12 11:14:08;;;;;;;9.30;3.20;;;;;;;26.67;34.08;95353.34;5035770;28;20281;-73
2023/09/12 11:16:35;;;;;;;9.18;3.13;;;;;;;26.72;33.57;95354.03;5068483;28;20225;-73
2023/09/12 11:19:19;;;;;;;8.82;3.38;;;;;;;26.81;34.37;95348.88;5050399;28;20328;-73
2023/09/12 11:21:52;;;;;;;9.27;3.17;;;;;;;26.84;33.92;95345.59;5061909;28;20225;-74
2023/09/12 11:24:17;;;;;;;7.30;3.10;;;;;;;26.85;34.17;95347.19;5028478;28;20235;-73
2023/09/12 11:27:00;;;;;;;8.18;3.42;;;;;;;26.67;35.55;95348.78;5039220;28;20237;-72